Time;durP1;ratioP1;P1;durP2;ratioP2;P2;SDS_P1;SDS_P2;PMS_P1;PMS_P2;Temp;Humidity;BMP_temperature;BMP_pressure;BME280_temperature;BME280_humidity;BME280_pressure;Samples;Min_cycle;Max_cycle;Signal;HPM_P1;HPM_P2
2022/03/13 00:00:10;;;;;;;1.80;1.67;;;14.10;96.50;;;;;;4990181;28;20232;-36
2022/03/13 00:02:41;;;;;;;2.20;2.00;;;14.10;96.50;;;;;;5001096;28;20267;-36
2022/03/13 00:05:16;;;;;;;2.30;2.10;;;14.10;96.50;;;;;;4989735;28;20236;-41
2022/03/13 00:07:45;;;;;;;2.70;1.73;;;14.10;96.50;;;;;;4988467;28;20561;-41
2022/03/13 00:10:24;;;;;;;2.35;1.90;;;14.10;96.50;;;;;;4994332;28;20221;-41
2022/03/13 00:12:51;;;;;;;2.05;1.85;;;14.10;96.60;;;;;;4989815;28;20204;-41
2022/03/13 00:15:32;;;;;;;2.47;2.10;;;14.00;96.50;;;;;;4992555;28;20244;-41
2022/03/13 00:17:59;;;;;;;1.98;1.73;;;14.00;96.60;;;;;;4988271;28;20206;-41
2022/03/13 00:20:27;;;;;;;2.22;1.90;;;14.00;96.60;;;;;;4991764;28;20590;-41
2022/03/13 00:22:54;;;;;;;2.60;1.98;;;14.00;96.60;;;;;;4986082;28;20198;-41
2022/03/13 00:25:21;;;;;;;2.08;1.88;;;14.00;96.60;;;;;;4985959;28;20205;-41
2022/03/13 00:27:51;;;;;;;2.55;2.20;;;14.00;96.70;;;;;;4987557;28;20249;-41
2022/03/13 00:30:19;;;;;;;2.20;1.83;;;14.00;96.70;;;;;;4990438;28;20225;-41
2022/03/13 00:32:48;;;;;;;2.03;1.80;;;13.90;96.70;;;;;;4987817;28;20552;-41
2022/03/13 00:35:20;;;;;;;1.90;1.73;;;13.90;96.70;;;;;;4989946;28;20209;-41
2022/03/13 00:37:47;;;;;;;2.25;1.92;;;13.90;96.70;;;;;;4985448;28;20287;-41
2022/03/13 00:40:18;;;;;;;2.72;2.28;;;13.90;96.70;;;;;;4995310;28;20208;-41
2022/03/13 00:42:45;;;;;;;1.80;1.70;;;13.90;96.70;;;;;;4995614;28;20677;-41
2022/03/13 00:45:15;;;;;;;5.32;2.22;;;13.90;96.80;;;;;;5006801;28;20233;-41
2022/03/13 00:47:45;;;;;;;1.95;1.75;;;13.90;96.80;;;;;;5001664;28;20208;-41
2022/03/13 00:50:16;;;;;;;1.75;1.65;;;13.90;96.80;;;;;;4999137;28;20309;-41
2022/03/13 00:52:46;;;;;;;1.73;1.58;;;13.90;96.90;;;;;;4988428;28;20206;-41
2022/03/13 00:55:16;;;;;;;1.90;1.70;;;13.90;96.90;;;;;;4986283;28;20733;-41
2022/03/13 00:57:43;;;;;;;1.95;1.75;;;13.90;96.90;;;;;;4993410;28;20202;-41
2022/03/13 01:00:11;;;;;;;1.70;1.60;;;13.90;96.90;;;;;;5007048;28;20217;-41
2022/03/13 01:02:41;;;;;;;1.65;1.55;;;13.90;97.00;;;;;;4999847;28;20743;-42
2022/03/13 01:05:10;;;;;;;3.15;1.88;;;13.90;97.00;;;;;;4995057;28;20206;-41
2022/03/13 01:07:39;;;;;;;2.77;1.80;;;13.90;97.00;;;;;;4989470;28;20210;-41
2022/03/13 01:10:14;;;;;;;1.75;1.65;;;13.90;97.10;;;;;;4993089;28;20229;-42
2022/03/13 01:12:43;;;;;;;1.98;1.60;;;13.90;97.10;;;;;;5005757;28;20688;-41
2022/03/13 01:15:11;;;;;;;3.13;1.90;;;13.90;97.10;;;;;;4999015;28;20300;-41
2022/03/13 01:17:40;;;;;;;2.43;1.80;;;13.80;97.10;;;;;;5005026;28;20217;-41
2022/03/13 01:20:17;;;;;;;1.83;1.70;;;13.90;97.20;;;;;;5006069;28;20854;-41
2022/03/13 01:22:45;;;;;;;1.90;1.70;;;13.80;97.20;;;;;;5003963;28;20291;-41
2022/03/13 01:25:15;;;;;;;2.27;1.67;;;13.80;97.20;;;;;;4989326;28;20241;-41
2022/03/13 01:27:42;;;;;;;1.83;1.70;;;13.80;97.20;;;;;;4990300;28;20502;-42
2022/03/13 01:30:13;;;;;;;1.90;1.70;;;13.80;97.20;;;;;;4998395;28;20779;-41
2022/03/13 01:32:42;;;;;;;1.65;1.55;;;13.80;97.20;;;;;;4986091;28;20198;-41
2022/03/13 01:35:09;;;;;;;1.88;1.73;;;13.80;97.20;;;;;;4988990;28;20205;-41
2022/03/13 01:37:44;;;;;;;2.53;1.75;;;13.80;97.20;;;;;;4985908;28;20200;-41
2022/03/13 01:40:19;;;;;;;1.90;1.70;;;13.80;97.30;;;;;;5003552;28;20246;-41
2022/03/13 01:42:50;;;;;;;1.95;1.75;;;13.80;97.30;;;;;;4989277;28;20220;-41
2022/03/13 01:45:23;;;;;;;2.23;1.97;;;13.80;97.30;;;;;;4999382;28;20241;-42
2022/03/13 01:47:53;;;;;;;2.50;2.00;;;13.80;97.30;;;;;;4989786;28;20700;-41
2022/03/13 01:50:25;;;;;;;2.42;1.80;;;13.80;97.30;;;;;;4989305;28;20233;-41
2022/03/13 01:52:56;;;;;;;2.55;2.00;;;13.80;97.40;;;;;;5001632;28;20245;-41
2022/03/13 01:55:28;;;;;;;2.58;2.22;;;13.80;97.40;;;;;;4992754;28;20226;-41
2022/03/13 01:57:58;;;;;;;3.15;2.00;;;13.80;97.50;;;;;;4990512;28;21040;-41
2022/03/13 02:00:29;;;;;;;2.10;1.90;;;13.70;97.40;;;;;;4996013;28;20639;-42
2022/03/13 02:02:56;;;;;;;2.80;1.85;;;13.80;97.50;;;;;;4993598;28;20205;-41
2022/03/13 02:05:36;;;;;;;2.60;2.40;;;13.70;97.50;;;;;;4997899;28;20237;-41
2022/03/13 02:08:21;;;;;;;2.50;2.17;;;13.70;97.50;;;;;;4993384;28;20214;-41
2022/03/13 02:10:52;;;;;;;2.95;2.42;;;13.70;97.60;;;;;;4992992;28;20217;-41
2022/03/13 02:13:20;;;;;;;2.45;2.17;;;13.70;97.50;;;;;;4984759;28;20206;-42
2022/03/13 02:15:52;;;;;;;2.70;2.40;;;13.70;97.50;;;;;;4996776;28;20205;-41
2022/03/13 02:18:20;;;;;;;3.28;2.30;;;13.70;97.50;;;;;;5004226;28;20202;-36
2022/03/13 02:20:49;;;;;;;2.78;2.30;;;13.70;97.60;;;;;;4993158;28;20305;-36
2022/03/13 02:23:25;;;;;;;2.40;2.15;;;13.70;97.60;;;;;;4997133;28;20672;-36
2022/03/13 02:25:57;;;;;;;2.50;2.30;;;13.70;97.70;;;;;;4993846;28;20248;-36
2022/03/13 02:28:29;;;;;;;2.60;2.40;;;13.70;97.60;;;;;;4996332;28;20451;-36
2022/03/13 02:31:16;;;;;;;2.90;2.60;;;13.70;97.70;;;;;;5001213;28;20853;-36
2022/03/13 02:33:44;;;;;;;3.45;2.72;;;13.70;97.80;;;;;;4996664;28;20205;-36
2022/03/13 02:36:32;;;;;;;2.90;2.60;;;13.70;97.70;;;;;;4973996;28;20202;-36
2022/03/13 02:39:01;;;;;;;2.43;2.23;;;13.70;97.90;;;;;;4991880;28;20333;-36
2022/03/13 02:41:28;;;;;;;3.17;2.80;;;13.70;97.80;;;;;;4972030;28;20308;-36
2022/03/13 02:43:59;;;;;;;4.95;2.88;;;13.70;97.80;;;;;;4993391;28;20209;-36
2022/03/13 02:46:47;;;;;;;3.47;3.10;;;13.70;97.80;;;;;;5006566;28;20217;-35
2022/03/13 02:49:23;;;;;;;2.90;2.60;;;13.70;98.00;;;;;;4997366;28;20213;-36
2022/03/13 02:51:52;;;;;;;3.25;2.80;;;13.60;97.90;;;;;;5007505;28;20229;-36
2022/03/13 02:54:22;;;;;;;2.90;2.42;;;13.60;97.90;;;;;;5004126;28;20233;-36
2022/03/13 02:56:53;;;;;;;3.28;2.80;;;13.60;97.90;;;;;;4992986;28;20536;-35
2022/03/13 02:59:20;;;;;;;3.47;3.00;;;13.60;97.90;;;;;;4999470;28;22130;-36
2022/03/13 03:01:50;;;;;;;3.43;2.90;;;13.60;97.90;;;;;;4988261;28;20590;-36
2022/03/13 03:04:22;;;;;;;3.70;3.20;;;13.60;98.00;;;;;;4991657;28;20317;-36
2022/03/13 03:06:58;;;;;;;3.67;2.88;;;13.60;98.00;;;;;;5000737;28;20703;-36
2022/03/13 03:09:29;;;;;;;5.23;3.10;;;13.60;98.10;;;;;;4991619;28;20233;-36
2022/03/13 03:12:01;;;;;;;2.77;2.57;;;13.60;98.10;;;;;;4990219;28;20624;-36
2022/03/13 03:14:33;;;;;;;3.10;2.80;;;13.60;98.10;;;;;;4993078;28;20254;-36
2022/03/13 03:17:00;;;;;;;3.40;3.10;;;13.60;98.10;;;;;;4990897;28;20253;-36
2022/03/13 03:19:27;;;;;;;3.47;3.03;;;13.50;98.10;;;;;;5001801;28;20206;-41
2022/03/13 03:21:55;;;;;;;4.13;3.25;;;13.50;98.10;;;;;;4996443;28;20225;-41
2022/03/13 03:24:24;;;;;;;4.85;3.42;;;13.50;98.10;;;;;;4999858;28;20202;-37
2022/03/13 03:26:58;;;;;;;4.40;3.13;;;13.50;98.20;;;;;;4998158;28;20210;-36
2022/03/13 03:29:31;;;;;;;3.88;3.47;;;13.50;98.10;;;;;;4982738;28;20239;-36
2022/03/13 03:31:58;;;;;;;3.70;3.30;;;13.50;98.10;;;;;;4989734;28;20236;-36
2022/03/13 03:34:32;;;;;;;4.53;3.47;;;13.40;98.10;;;;;;5004986;28;20209;-36
2022/03/13 03:37:03;;;;;;;3.28;2.97;;;13.40;98.20;;;;;;5004796;28;20210;-36
2022/03/13 03:39:32;;;;;;;4.73;3.83;;;13.40;98.20;;;;;;4999488;28;20211;-36
2022/03/13 03:42:00;;;;;;;3.67;3.25;;;13.40;98.20;;;;;;4989725;28;20296;-36
2022/03/13 03:44:27;;;;;;;4.63;3.70;;;13.40;98.20;;;;;;4989595;28;20201;-36
2022/03/13 03:46:55;;;;;;;4.68;3.35;;;13.40;98.20;;;;;;5005185;28;20256;-36
2022/03/13 03:49:25;;;;;;;3.50;3.10;;;13.40;98.30;;;;;;4999872;28;20222;-36
2022/03/13 03:51:54;;;;;;;4.07;3.20;;;13.30;98.60;;;;;;4995333;28;20329;-36
2022/03/13 03:54:21;;;;;;;4.35;3.60;;;13.30;98.30;;;;;;4998821;28;20316;-36
2022/03/13 03:56:51;;;;;;;4.60;3.28;;;13.30;98.30;;;;;;5001010;28;20779;-36
2022/03/13 03:59:23;;;;;;;4.07;3.67;;;13.30;98.30;;;;;;4993238;28;20297;-35
2022/03/13 04:01:51;;;;;;;4.25;3.75;;;13.30;98.30;;;;;;4991276;28;20206;-36
2022/03/13 04:04:18;;;;;;;4.20;3.43;;;13.30;98.30;;;;;;4995463;28;20217;-36
2022/03/13 04:06:49;;;;;;;4.70;3.50;;;13.30;98.30;;;;;;4993226;28;20221;-36
2022/03/13 04:09:16;;;;;;;3.60;3.30;;;13.30;98.40;;;;;;4992167;28;20210;-36
2022/03/13 04:11:43;;;;;;;3.97;3.58;;;13.30;98.40;;;;;;4992383;28;20888;-36
2022/03/13 04:14:11;;;;;;;4.63;3.65;;;13.20;98.30;;;;;;4987815;28;20849;-36
2022/03/13 04:16:38;;;;;;;4.32;3.70;;;13.20;98.40;;;;;;4986110;28;20201;-36
2022/03/13 04:19:07;;;;;;;4.10;3.70;;;13.20;98.40;;;;;;4992614;28;20750;-36
2022/03/13 04:21:35;;;;;;;4.18;3.72;;;13.20;98.40;;;;;;5000751;28;20488;-36
2022/03/13 04:24:03;;;;;;;3.90;3.47;;;13.20;98.40;;;;;;4994957;28;20257;-36
2022/03/13 04:26:33;;;;;;;3.92;3.42;;;13.20;98.40;;;;;;4992346;28;20383;-36
2022/03/13 04:29:00;;;;;;;5.45;3.92;;;13.10;98.40;;;;;;5000909;28;20278;-36
2022/03/13 04:31:28;;;;;;;4.80;3.90;;;13.10;98.40;;;;;;4985667;28;20308;-36
2022/03/13 04:33:59;;;;;;;4.57;4.05;;;13.10;98.40;;;;;;5000052;28;20218;-36
2022/03/13 04:36:28;;;;;;;4.90;4.20;;;13.10;98.50;;;;;;5000361;28;20220;-36
2022/03/13 04:38:55;;;;;;;5.40;3.97;;;13.10;98.40;;;;;;4988647;28;20665;-36
2022/03/13 04:41:22;;;;;;;5.20;4.28;;;13.10;98.50;;;;;;4988992;28;20327;-36
2022/03/13 04:43:49;;;;;;;5.25;4.50;;;13.10;98.50;;;;;;5002865;28;20214;-36
2022/03/13 04:46:19;;;;;;;4.93;4.40;;;13.10;98.60;;;;;;5003590;28;20214;-36
2022/03/13 04:48:49;;;;;;;5.68;5.00;;;13.10;98.60;;;;;;5005020;28;20209;-36
2022/03/13 04:51:16;;;;;;;6.35;5.40;;;13.10;98.60;;;;;;5001163;28;20309;-36
2022/03/13 04:53:44;;;;;;;7.93;5.93;;;13.10;98.70;;;;;;4989183;28;20296;-36
2022/03/13 04:56:11;;;;;;;7.50;5.90;;;13.10;98.70;;;;;;4996711;28;20197;-36
2022/03/13 04:58:39;;;;;;;7.60;6.50;;;13.10;98.70;;;;;;4973276;28;20211;-36
2022/03/13 05:01:09;;;;;;;6.47;5.77;;;13.10;98.70;;;;;;5005535;28;20248;-36
2022/03/13 05:03:39;;;;;;;9.37;6.63;;;13.10;98.80;;;;;;4989088;28;20209;-36
2022/03/13 05:06:07;;;;;;;8.90;6.60;;;13.00;98.80;;;;;;4993082;28;20209;-36
2022/03/13 05:08:37;;;;;;;8.70;7.18;;;13.00;98.80;;;;;;4988120;28;20643;-36
2022/03/13 05:11:07;;;;;;;9.13;7.30;;;13.00;98.80;;;;;;4991395;28;20571;-36
2022/03/13 05:13:37;;;;;;;8.65;7.07;;;13.00;98.80;;;;;;4986549;28;20235;-36
2022/03/13 05:16:04;;;;;;;10.60;7.73;;;13.00;98.80;;;;;;5003365;28;20221;-36
2022/03/13 05:18:36;;;;;;;10.55;7.63;;;13.00;98.80;;;;;;4995304;28;20623;-36
2022/03/13 05:21:04;;;;;;;9.10;7.73;;;12.90;98.80;;;;;;4998654;28;20263;-36
2022/03/13 05:23:31;;;;;;;8.63;7.40;;;12.90;98.80;;;;;;4988812;28;20212;-36
2022/03/13 05:25:58;;;;;;;9.83;7.63;;;12.90;98.80;;;;;;4988419;28;20227;-36
2022/03/13 05:28:28;;;;;;;9.40;7.90;;;12.90;98.80;;;;;;4986167;28;20206;-36
2022/03/13 05:30:58;;;;;;;9.03;7.97;;;12.90;98.90;;;;;;4998633;28;20250;-36
2022/03/13 05:33:27;;;;;;;10.53;8.33;;;12.90;98.80;;;;;;4988131;28;20697;-37
2022/03/13 05:35:55;;;;;;;9.87;8.77;;;12.90;98.90;;;;;;4994496;28;20210;-36
2022/03/13 05:38:22;;;;;;;10.97;9.17;;;12.80;98.80;;;;;;4988405;28;20202;-36
2022/03/13 05:40:49;;;;;;;11.43;9.20;;;12.90;98.90;;;;;;4987055;28;20202;-36
2022/03/13 05:43:18;;;;;;;11.70;8.52;;;12.80;98.90;;;;;;4987700;28;20232;-36
2022/03/13 05:45:45;;;;;;;11.20;9.50;;;12.80;98.90;;;;;;4997917;28;20211;-36
2022/03/13 05:48:17;;;;;;;11.57;9.37;;;12.80;98.80;;;;;;4987121;28;20222;-36
2022/03/13 05:50:45;;;;;;;10.57;9.07;;;12.80;98.90;;;;;;4989251;28;20276;-36
2022/03/13 05:53:15;;;;;;;12.05;9.68;;;12.80;98.80;;;;;;4987411;28;20244;-36
2022/03/13 05:55:43;;;;;;;17.15;9.80;;;12.70;98.80;;;;;;4981941;28;20557;-36
2022/03/13 05:58:13;;;;;;;12.90;10.23;;;12.70;98.80;;;;;;4995767;28;20202;-36
2022/03/13 06:00:49;;;;;;;11.70;10.10;;;12.70;98.80;;;;;;4991714;28;20750;-35
2022/03/13 06:03:19;;;;;;;12.15;10.25;;;12.60;98.80;;;;;;4981286;28;20241;-36
2022/03/13 06:05:53;;;;;;;14.27;10.30;;;12.60;98.80;;;;;;4995495;28;20296;-36
2022/03/13 06:08:20;;;;;;;14.18;10.40;;;12.60;98.80;;;;;;4988333;28;20233;-36
2022/03/13 06:10:48;;;;;;;14.00;10.47;;;12.60;98.70;;;;;;4987247;28;20226;-36
2022/03/13 06:13:22;;;;;;;13.68;10.73;;;12.50;98.70;;;;;;4979352;28;20198;-36
2022/03/13 06:15:52;;;;;;;13.60;10.52;;;12.50;98.70;;;;;;4972810;28;20201;-36
2022/03/13 06:18:20;;;;;;;15.47;11.93;;;12.40;98.60;;;;;;4979012;28;20221;-36
2022/03/13 06:20:47;;;;;;;13.60;10.60;;;12.40;98.60;;;;;;4990217;28;20707;-35
2022/03/13 06:23:16;;;;;;;15.23;11.97;;;12.40;98.60;;;;;;4991589;28;20237;-35
2022/03/13 06:25:45;;;;;;;14.30;10.77;;;12.30;98.60;;;;;;4990921;28;20252;-35
2022/03/13 06:28:14;;;;;;;13.77;11.60;;;12.30;98.60;;;;;;4997039;28;20275;-35
2022/03/13 06:30:44;;;;;;;16.13;12.17;;;12.30;98.60;;;;;;4999861;28;20296;-35
2022/03/13 06:33:12;;;;;;;15.13;12.23;;;12.30;98.60;;;;;;4989332;28;20318;-35
2022/03/13 06:35:41;;;;;;;15.43;11.83;;;12.20;98.60;;;;;;4998181;28;20340;-35
2022/03/13 06:38:08;;;;;;;15.90;12.37;;;12.20;98.60;;;;;;4985516;28;20681;-35
2022/03/13 06:40:35;;;;;;;17.37;12.77;;;12.20;98.60;;;;;;4992522;28;20212;-35
2022/03/13 06:43:03;;;;;;;16.47;12.53;;;12.20;98.60;;;;;;5002786;28;20292;-35
2022/03/13 06:45:32;;;;;;;17.07;12.77;;;12.20;98.60;;;;;;5006020;28;20308;-35
2022/03/13 06:48:00;;;;;;;18.03;13.40;;;12.20;98.60;;;;;;4996512;28;20300;-35
2022/03/13 06:50:29;;;;;;;16.00;12.40;;;12.20;98.60;;;;;;4995386;28;20198;-35
2022/03/13 06:52:59;;;;;;;17.10;13.13;;;12.20;98.70;;;;;;4990401;28;20374;-35
2022/03/13 06:55:32;;;;;;;16.17;13.43;;;12.20;98.70;;;;;;5002739;28;20205;-35
2022/03/13 06:58:00;;;;;;;20.47;14.03;;;12.20;98.80;;;;;;4999720;28;20635;-35
2022/03/13 07:00:27;;;;;;;17.03;13.63;;;12.20;98.70;;;;;;4999893;28;20590;-36
2022/03/13 07:03:00;;;;;;;18.43;13.67;;;12.20;98.70;;;;;;4993269;28;20245;-35
2022/03/13 07:05:28;;;;;;;17.47;13.47;;;12.20;98.70;;;;;;4981799;28;20213;-35
2022/03/13 07:08:00;;;;;;;17.57;13.60;;;12.20;98.60;;;;;;4994987;28;20205;-35
2022/03/13 07:10:30;;;;;;;19.43;15.27;;;12.20;98.70;;;;;;5003530;28;20222;-35
2022/03/13 07:13:03;;;;;;;18.43;14.10;;;12.20;98.60;;;;;;4997622;28;20264;-36
2022/03/13 07:15:31;;;;;;;20.33;14.87;;;12.20;98.70;;;;;;5008325;28;20676;-35
2022/03/13 07:18:01;;;;;;;18.83;14.47;;;12.20;98.90;;;;;;4991933;28;20720;-35
2022/03/13 07:20:31;;;;;;;18.63;14.13;;;12.20;98.70;;;;;;4995686;28;20665;-35
2022/03/13 07:22:58;;;;;;;17.00;13.97;;;12.20;98.60;;;;;;4992967;28;20201;-35
2022/03/13 07:25:25;;;;;;;20.03;14.77;;;12.20;98.60;;;;;;4998692;28;20697;-35
2022/03/13 07:27:53;;;;;;;18.30;13.87;;;12.20;98.70;;;;;;4981507;28;20202;-35
2022/03/13 07:30:20;;;;;;;20.77;14.67;;;12.20;98.70;;;;;;4993102;28;20246;-35
2022/03/13 07:32:49;;;;;;;20.57;14.90;;;12.30;98.70;;;;;;4989299;28;20718;-35
2022/03/13 07:35:17;;;;;;;17.50;14.47;;;12.30;98.70;;;;;;5005994;28;20255;-35
2022/03/13 07:37:47;;;;;;;16.40;13.50;;;12.30;98.70;;;;;;4996262;28;20193;-35
2022/03/13 07:40:18;;;;;;;17.23;13.47;;;12.30;98.70;;;;;;5004858;28;20569;-35
2022/03/13 07:42:45;;;;;;;19.77;14.73;;;12.30;98.80;;;;;;5004942;28;20202;-35
2022/03/13 07:45:15;;;;;;;17.50;14.27;;;12.30;98.80;;;;;;4992020;28;20593;-35
2022/03/13 07:47:50;;;;;;;17.43;14.77;;;12.40;98.90;;;;;;5004955;28;20205;-35
2022/03/13 07:50:18;;;;;;;17.70;14.50;;;12.40;98.80;;;;;;4992853;28;20209;-35
2022/03/13 07:52:45;;;;;;;18.57;13.97;;;12.40;98.80;;;;;;5000146;28;20795;-35
2022/03/13 07:55:15;;;;;;;18.10;14.03;;;12.40;98.80;;;;;;4995244;28;20220;-35
2022/03/13 07:57:44;;;;;;;20.07;14.53;;;12.50;98.80;;;;;;4997823;28;20691;-35
2022/03/13 08:00:18;;;;;;;18.03;14.57;;;12.50;98.80;;;;;;4989513;28;20213;-35
2022/03/13 08:02:46;;;;;;;18.47;14.03;;;12.60;98.90;;;;;;4988454;28;20349;-35
2022/03/13 08:05:16;;;;;;;17.50;13.17;;;12.60;98.90;;;;;;5005170;28;20209;-35
2022/03/13 08:07:43;;;;;;;16.13;13.57;;;12.60;98.90;;;;;;4988259;28;20306;-35
2022/03/13 08:10:11;;;;;;;16.38;13.18;;;12.70;98.90;;;;;;4996047;28;20637;-35
2022/03/13 08:12:39;;;;;;;17.30;13.17;;;12.70;98.90;;;;;;5006929;28;20221;-35
2022/03/13 08:15:09;;;;;;;16.17;12.57;;;12.80;99.00;;;;;;5002880;28;20213;-35
2022/03/13 08:17:38;;;;;;;16.70;12.77;;;12.80;98.90;;;;;;4989013;28;20305;-35
2022/03/13 08:20:08;;;;;;;16.00;12.30;;;12.80;98.90;;;;;;4975070;28;20233;-35
2022/03/13 08:22:37;;;;;;;15.18;11.65;;;12.90;99.00;;;;;;5001665;28;20727;-35
2022/03/13 08:25:06;;;;;;;15.37;12.10;;;12.90;99.00;;;;;;4999827;28;20211;-41
2022/03/13 08:27:34;;;;;;;15.63;12.43;;;12.90;99.00;;;;;;4990494;28;20222;-41
2022/03/13 08:30:03;;;;;;;13.80;10.83;;;13.00;99.10;;;;;;4991891;28;20197;-41
2022/03/13 08:32:30;;;;;;;13.07;10.75;;;13.00;99.00;;;;;;5000034;28;20663;-41
2022/03/13 08:34:57;;;;;;;13.73;11.03;;;13.10;99.10;;;;;;4996640;28;20762;-35
2022/03/13 08:37:27;;;;;;;12.43;11.13;;;13.10;99.10;;;;;;4980443;28;20201;-35
2022/03/13 08:39:56;;;;;;;13.65;10.43;;;13.20;99.10;;;;;;5000002;28;20564;-35
2022/03/13 08:42:26;;;;;;;12.95;9.95;;;13.20;99.10;;;;;;4991020;28;20701;-35
2022/03/13 08:44:54;;;;;;;14.43;10.20;;;13.30;99.20;;;;;;4991447;28;20221;-35
2022/03/13 08:47:21;;;;;;;10.57;9.43;;;13.30;99.10;;;;;;4982138;28;20672;-35
2022/03/13 08:49:50;;;;;;;11.83;9.30;;;13.30;99.20;;;;;;5000702;28;20209;-35
2022/03/13 08:52:17;;;;;;;12.10;9.67;;;13.40;99.20;;;;;;4997294;28;20229;-35
2022/03/13 08:54:47;;;;;;;13.07;9.07;;;13.40;99.20;;;;;;5001172;28;20233;-35
2022/03/13 08:57:14;;;;;;;10.68;9.07;;;13.50;99.20;;;;;;4994861;28;20210;-35
2022/03/13 08:59:43;;;;;;;10.50;8.80;;;13.50;99.20;;;;;;4988306;28;20206;-35
2022/03/13 09:02:11;;;;;;;11.00;8.80;;;13.50;99.20;;;;;;4988570;28;20246;-35
2022/03/13 09:04:38;;;;;;;10.77;7.85;;;13.60;99.20;;;;;;4994838;28;20900;-35
2022/03/13 09:07:05;;;;;;;9.60;7.65;;;13.60;99.20;;;;;;4987141;28;20228;-35
2022/03/13 09:09:33;;;;;;;10.03;7.57;;;13.70;99.20;;;;;;4987077;28;20269;-35
2022/03/13 09:12:06;;;;;;;9.77;7.72;;;13.70;99.20;;;;;;4979326;28;20778;-35
2022/03/13 09:14:38;;;;;;;9.18;7.00;;;13.70;99.20;;;;;;5000838;28;20210;-35
2022/03/13 09:17:08;;;;;;;9.52;7.85;;;13.80;99.30;;;;;;4994149;28;20332;-35
2022/03/13 09:19:41;;;;;;;8.80;7.27;;;13.90;99.30;;;;;;4996496;28;20275;-35
2022/03/13 09:22:08;;;;;;;9.80;7.53;;;13.90;99.30;;;;;;4991130;28;20297;-36
2022/03/13 09:24:36;;;;;;;9.23;6.88;;;13.90;99.30;;;;;;4988776;28;20233;-35
2022/03/13 09:27:03;;;;;;;7.70;6.45;;;14.00;99.30;;;;;;5001110;28;20211;-35
2022/03/13 09:29:30;;;;;;;8.75;7.10;;;14.00;99.30;;;;;;4992104;28;20233;-35
2022/03/13 09:32:00;;;;;;;9.15;6.63;;;14.10;99.30;;;;;;4992587;28;20281;-35
2022/03/13 09:34:28;;;;;;;6.53;5.80;;;14.10;99.20;;;;;;4998835;28;20198;-35
2022/03/13 09:36:56;;;;;;;8.97;6.07;;;14.20;99.30;;;;;;4989019;28;20264;-35
2022/03/13 09:39:25;;;;;;;7.35;5.80;;;14.20;99.30;;;;;;4995365;28;20999;-35
2022/03/13 09:41:53;;;;;;;7.43;6.40;;;14.30;99.60;;;;;;4995703;28;20308;-35
2022/03/13 09:44:24;;;;;;;7.90;5.90;;;14.40;99.30;;;;;;5005657;28;20645;-35
2022/03/13 09:46:51;;;;;;;9.40;5.93;;;14.40;99.40;;;;;;4999956;28;20214;-35
2022/03/13 09:49:23;;;;;;;7.20;6.45;;;14.40;99.40;;;;;;4985390;28;20252;-35
2022/03/13 09:51:54;;;;;;;8.32;6.38;;;14.50;99.50;;;;;;5000632;28;20213;-35
2022/03/13 09:54:23;;;;;;;7.35;6.35;;;14.60;99.50;;;;;;4984354;28;20324;-35
2022/03/13 09:56:51;;;;;;;7.30;5.97;;;14.60;99.60;;;;;;5000947;28;20225;-35
2022/03/13 09:59:18;;;;;;;6.93;5.68;;;14.70;99.60;;;;;;4992330;28;20213;-35
2022/03/13 10:01:45;;;;;;;7.43;5.67;;;14.70;99.60;;;;;;4992967;28;20448;-35
2022/03/13 10:04:13;;;;;;;7.57;5.93;;;14.80;99.60;;;;;;4991110;28;20717;-35
2022/03/13 10:07:02;;;;;;;6.28;5.45;;;14.80;99.50;;;;;;4995138;28;20202;-35
2022/03/13 10:09:33;;;;;;;7.13;5.50;;;14.90;99.60;;;;;;4971982;28;20209;-35
2022/03/13 10:12:14;;;;;;;8.45;6.35;;;15.00;99.60;;;;;;5000884;28;20225;-35
2022/03/13 10:15:00;;;;;;;6.82;5.78;;;15.00;99.60;;;;;;4995379;28;20438;-35
2022/03/13 10:17:32;;;;;;;6.10;5.50;;;15.10;99.60;;;;;;5002158;28;20201;-35
2022/03/13 10:20:17;;;;;;;6.53;5.50;;;15.10;99.60;;;;;;5000415;28;20208;-35
2022/03/13 10:22:49;;;;;;;7.18;5.60;;;15.20;99.70;;;;;;5007655;28;20300;-35
2022/03/13 10:25:36;;;;;;;6.03;5.28;;;15.20;99.70;;;;;;4995663;28;20210;-35
2022/03/13 10:28:18;;;;;;;7.45;5.35;;;15.30;99.70;;;;;;4993056;28;20217;-35
2022/03/13 10:31:00;;;;;;;7.25;5.40;;;15.30;99.70;;;;;;4994603;28;20214;-35
2022/03/13 10:33:47;;;;;;;6.47;5.53;;;15.40;99.70;;;;;;5005932;28;20245;-35
2022/03/13 10:36:19;;;;;;;5.90;5.20;;;15.40;99.80;;;;;;5002229;28;20684;-34
2022/03/13 10:38:49;;;;;;;5.65;5.05;;;15.50;99.80;;;;;;4999872;28;20201;-35
2022/03/13 10:41:20;;;;;;;5.95;5.15;;;15.60;99.80;;;;;;4992823;28;20289;-34
2022/03/13 10:43:59;;;;;;;5.63;4.80;;;15.60;99.80;;;;;;4997149;28;20203;-35
2022/03/13 10:46:29;;;;;;;4.40;4.00;;;15.70;99.90;;;;;;5005159;28;20260;-35
2022/03/13 10:49:02;;;;;;;6.03;4.95;;;15.70;99.90;;;;;;4998893;28;20723;-34
2022/03/13 10:51:38;;;;;;;6.22;4.80;;;15.80;99.90;;;;;;4991839;28;21600;-35
2022/03/13 10:54:06;;;;;;;4.85;4.38;;;15.90;99.90;;;;;;4990455;28;20233;-35
2022/03/13 10:56:36;;;;;;;5.30;4.35;;;15.90;99.90;;;;;;4992506;28;20210;-34
2022/03/13 10:59:17;;;;;;;5.57;4.13;;;16.00;99.90;;;;;;4993434;28;20220;-34
2022/03/13 11:02:16;;;;;;;5.35;4.68;;;16.00;99.90;;;;;;4998670;28;20205;-34
2022/03/13 11:04:54;;;;;;;5.07;4.38;;;16.10;99.90;;;;;;4992424;28;20244;-34
2022/03/13 11:07:24;;;;;;;4.50;4.07;;;16.10;99.90;;;;;;4993883;28;20677;-34
2022/03/13 11:09:51;;;;;;;4.72;3.80;;;16.10;99.90;;;;;;5004709;28;20193;-34
2022/03/13 11:12:26;;;;;;;4.45;3.88;;;16.20;99.90;;;;;;5005132;28;20221;-34
2022/03/13 11:15:01;;;;;;;5.55;3.70;;;16.20;99.90;;;;;;5005802;28;20296;-34
2022/03/13 11:17:32;;;;;;;5.80;3.95;;;16.30;99.90;;;;;;4980412;28;20260;-34
2022/03/13 11:20:05;;;;;;;4.03;3.63;;;16.30;99.90;;;;;;4996901;28;20204;-34
2022/03/13 11:22:35;;;;;;;4.25;3.83;;;16.30;99.90;;;;;;4981584;28;20209;-42
2022/03/13 11:25:09;;;;;;;4.68;4.28;;;16.30;99.80;;;;;;4994549;28;20352;-41
2022/03/13 11:27:44;;;;;;;5.95;3.50;;;16.40;99.90;;;;;;5002231;28;20210;-41
2022/03/13 11:30:18;;;;;;;3.28;2.95;;;16.40;99.90;;;;;;4999702;28;20208;-41
2022/03/13 11:32:53;;;;;;;4.40;3.35;;;16.50;99.90;;;;;;4989319;28;20225;-41
2022/03/13 11:35:23;;;;;;;4.70;3.78;;;16.50;99.90;;;;;;5009156;28;20197;-41
2022/03/13 11:38:05;;;;;;;3.63;3.33;;;16.60;99.90;;;;;;4991406;28;20912;-41
2022/03/13 11:40:38;;;;;;;4.38;3.40;;;16.60;99.90;;;;;;4990816;28;20204;-41
2022/03/13 11:43:19;;;;;;;4.97;3.05;;;16.70;99.90;;;;;;4994633;28;20206;-41
2022/03/13 11:45:59;;;;;;;4.75;3.65;;;16.70;99.90;;;;;;4992456;28;20204;-41
2022/03/13 11:48:36;;;;;;;4.57;3.53;;;16.80;99.90;;;;;;5005864;28;20213;-41
2022/03/13 11:51:05;;;;;;;4.32;3.42;;;16.80;99.90;;;;;;5008835;28;20695;-41
2022/03/13 11:53:40;;;;;;;3.30;3.00;;;16.80;99.90;;;;;;5002068;28;20237;-41
2022/03/13 11:56:28;;;;;;;3.30;2.60;;;16.80;99.50;;;;;;5001394;28;20194;-41
2022/03/13 11:59:12;;;;;;;3.15;2.85;;;16.90;99.70;;;;;;5005340;28;20225;-41
2022/03/13 12:01:42;;;;;;;4.20;3.10;;;16.90;99.70;;;;;;4991521;28;20705;-42
2022/03/13 12:04:21;;;;;;;3.70;3.33;;;16.90;99.80;;;;;;5002747;28;20217;-41
2022/03/13 12:06:50;;;;;;;3.50;3.17;;;16.90;99.20;;;;;;4997375;28;20241;-41
2022/03/13 12:09:31;;;;;;;4.07;3.20;;;16.90;99.70;;;;;;4998266;28;20221;-41
2022/03/13 12:12:03;;;;;;;3.88;3.38;;;17.00;99.60;;;;;;5005398;28;20707;-41
2022/03/13 12:15:01;;;;;;;4.15;3.20;;;17.00;99.70;;;;;;4996086;28;20233;-41
2022/03/13 12:17:44;;;;;;;2.83;2.50;;;17.00;99.60;;;;;;5008787;28;20218;-41
2022/03/13 12:20:26;;;;;;;3.10;2.80;;;17.00;99.60;;;;;;4992903;28;20708;-41
2022/03/13 12:22:57;;;;;;;3.38;2.35;;;17.10;99.50;;;;;;4999144;28;20600;-41
2022/03/13 12:25:30;;;;;;;2.83;2.50;;;17.10;99.70;;;;;;4996615;28;20300;-41
2022/03/13 12:28:01;;;;;;;3.05;2.20;;;17.10;99.70;;;;;;4978758;28;20389;-41
2022/03/13 12:30:30;;;;;;;2.58;2.38;;;17.20;99.70;;;;;;4993985;28;20512;-41
2022/03/13 12:33:07;;;;;;;2.75;2.28;;;17.20;99.80;;;;;;4979094;28;21514;-42
2022/03/13 12:35:56;;;;;;;2.70;2.17;;;17.30;99.80;;;;;;4990136;28;20221;-41
2022/03/13 12:38:29;;;;;;;2.72;2.22;;;17.30;99.70;;;;;;4993657;28;20209;-42
2022/03/13 12:40:58;;;;;;;2.10;1.88;;;17.30;99.50;;;;;;4992786;28;20301;-42
2022/03/13 12:43:49;;;;;;;2.28;2.08;;;17.40;99.70;;;;;;4994804;28;20232;-41
2022/03/13 12:46:22;;;;;;;2.00;1.80;;;17.40;99.60;;;;;;4999013;28;20642;-41
2022/03/13 12:49:10;;;;;;;2.72;1.90;;;17.50;99.70;;;;;;5003283;28;20607;-41
2022/03/13 12:51:45;;;;;;;3.08;2.28;;;17.50;99.60;;;;;;4977220;28;20226;-42
2022/03/13 12:54:21;;;;;;;2.25;2.03;;;17.50;99.70;;;;;;4999055;28;20326;-42
2022/03/13 12:56:57;;;;;;;2.83;1.88;;;17.60;99.80;;;;;;4998661;28;20201;-42
2022/03/13 12:59:28;;;;;;;1.90;1.80;;;17.60;99.70;;;;;;5001291;28;20197;-42